Time;durP1;ratioP1;P1;durP2;ratioP2;P2;SDS_P1;SDS_P2;PMS_P1;PMS_P2;Temp;Humidity;BMP_temperature;BMP_pressure;BME280_temperature;BME280_humidity;BME280_pressure;Samples;Min_cycle;Max_cycle;Signal;HPM_P1;HPM_P2
2023/09/12 00:01:24;;;;;;;1.43;1.43;;;;;19.30;95784.00;;;;5057714;28;20188;-62
2023/09/12 00:03:51;;;;;;;2.33;2.13;;;;;19.20;95780.00;;;;5057789;28;20698;-63
2023/09/12 00:06:21;;;;;;;1.90;1.80;;;;;19.20;95789.00;;;;5057880;28;20278;-63
2023/09/12 00:08:49;;;;;;;1.10;1.10;;;;;19.20;95776.00;;;;5057737;28;20529;-62
2023/09/12 00:11:16;;;;;;;1.30;1.30;;;;;19.20;95783.00;;;;5057101;28;20188;-62
2023/09/12 00:13:44;;;;;;;1.80;1.70;;;;;19.20;95788.00;;;;5057290;28;20218;-62
2023/09/12 00:16:12;;;;;;;1.80;1.70;;;;;19.20;95780.00;;;;5057517;28;20247;-63
2023/09/12 00:18:46;;;;;;;1.83;1.73;;;;;19.10;95775.00;;;;5057560;28;20483;-63
2023/09/12 00:21:14;;;;;;;1.27;1.20;;;;;19.00;95775.00;;;;5055829;28;20195;-63
2023/09/12 00:23:43;;;;;;;1.87;1.70;;;;;19.10;95776.00;;;;5057866;28;20717;-62
2023/09/12 00:26:12;;;;;;;1.83;1.73;;;;;19.10;95772.00;;;;5056936;28;20602;-62
2023/09/12 00:28:40;;;;;;;1.93;1.83;;;;;19.10;95774.00;;;;5056548;28;20188;-63
2023/09/12 00:31:11;;;;;;;2.93;1.27;;;;;19.00;95766.00;;;;5056236;28;20176;-63
2023/09/12 00:33:39;;;;;;;2.17;2.07;;;;;19.00;95765.00;;;;5038207;28;20224;-62
2023/09/12 00:36:09;;;;;;;1.20;1.20;;;;;18.90;95768.00;;;;5038721;28;20315;-62
2023/09/12 00:38:39;;;;;;;13.23;1.77;;;;;18.90;95755.00;;;;5056563;28;20530;-62
2023/09/12 00:41:06;;;;;;;2.83;2.63;;;;;19.00;95756.00;;;;5056170;28;20200;-62
2023/09/12 00:43:34;;;;;;;2.27;2.07;;;;;18.90;95763.00;;;;5038070;28;20215;-63
2023/09/12 00:46:01;;;;;;;1.37;1.33;;;;;18.80;95757.00;;;;5055971;28;20200;-62
2023/09/12 00:48:31;;;;;;;1.03;1.03;;;;;18.60;95755.00;;;;5056083;28;20203;-62
2023/09/12 00:50:59;;;;;;;1.83;1.73;;;;;18.60;95752.00;;;;5056140;28;20199;-62
2023/09/12 00:53:29;;;;;;;1.50;1.40;;;;;18.60;95752.00;;;;5055913;28;20198;-62
2023/09/12 00:56:01;;;;;;;3.37;1.97;;;;;18.50;95756.00;;;;5056059;28;20211;-62
2023/09/12 00:58:32;;;;;;;1.40;1.30;;;;;18.50;95750.00;;;;5056083;28;20287;-62
2023/09/12 01:01:01;;;;;;;2.53;2.07;;;;;18.50;95749.00;;;;5055813;28;20201;-63
2023/09/12 01:03:30;;;;;;;1.87;1.77;;;;;18.60;95748.00;;;;5055768;28;20192;-63
2023/09/12 01:06:00;;;;;;;2.10;1.90;;;;;18.50;95748.00;;;;5055741;28;20200;-62
2023/09/12 01:08:27;;;;;;;1.70;1.60;;;;;18.40;95745.00;;;;5055623;28;20184;-63
2023/09/12 01:11:02;;;;;;;1.83;1.73;;;;;18.40;95742.00;;;;5055459;28;20192;-62
2023/09/12 01:13:29;;;;;;;2.03;1.87;;;;;18.40;95741.00;;;;5055795;28;20184;-62
2023/09/12 01:15:57;;;;;;;2.00;1.13;;;;;18.30;95747.00;;;;5055374;28;20310;-62
2023/09/12 01:18:25;;;;;;;1.00;1.00;;;;;18.20;95744.00;;;;5055635;28;20207;-62
2023/09/12 01:21:14;;;;;;;1.93;1.73;;;;;18.20;95739.00;;;;5055584;28;20242;-62
2023/09/12 01:23:56;;;;;;;1.43;1.43;;;;;18.10;95741.00;;;;5055372;28;20691;-62
2023/09/12 01:26:41;;;;;;;2.50;2.30;;;;;18.20;95738.00;;;;5055091;28;20180;-62
2023/09/12 01:29:13;;;;;;;2.37;1.40;;;;;18.20;95745.00;;;;5055274;28;20186;-62
2023/09/12 01:31:41;;;;;;;2.13;2.03;;;;;18.20;95741.00;;;;5055868;28;20183;-62
2023/09/12 01:34:15;;;;;;;2.33;2.17;;;;;18.20;95747.00;;;;5056195;28;20291;-62
2023/09/12 01:36:42;;;;;;;1.37;1.33;;;;;18.20;95748.00;;;;5055707;28;20212;-62
2023/09/12 01:39:10;;;;;;;1.60;1.50;;;;;18.10;95749.00;;;;5055694;28;20222;-63
2023/09/12 01:41:43;;;;;;;7.70;2.20;;;;;18.10;95748.00;;;;5055845;28;20198;-63
2023/09/12 01:44:20;;;;;;;1.53;1.43;;;;;18.20;95744.00;;;;5055475;28;20204;-62
2023/09/12 01:46:50;;;;;;;1.20;1.20;;;;;18.20;95738.00;;;;5055549;28;20187;-62
2023/09/12 01:49:24;;;;;;;0.90;0.90;;;;;18.20;95742.00;;;;5054582;28;20227;-62
2023/09/12 01:51:52;;;;;;;1.20;1.20;;;;;18.30;95733.00;;;;5055025;28;20242;-62
2023/09/12 01:54:21;;;;;;;1.50;1.47;;;;;18.30;95730.00;;;;5054491;28;20549;-62
2023/09/12 01:56:48;;;;;;;2.07;1.97;;;;;18.20;95732.00;;;;5036445;28;20220;-62
2023/09/12 01:59:17;;;;;;;1.93;1.57;;;;;17.60;95746.00;;;;5054208;28;20200;-62
2023/09/12 02:01:45;;;;;;;2.27;2.03;;;;;17.60;95742.00;;;;5054218;28;20192;-62
2023/09/12 02:04:12;;;;;;;0.87;0.87;;;;;17.60;95731.00;;;;5054053;28;20724;-62
2023/09/12 02:06:42;;;;;;;1.53;1.43;;;;;17.70;95742.00;;;;5055345;28;20263;-62
2023/09/12 02:09:10;;;;;;;2.30;2.10;;;;;17.80;95738.00;;;;5054458;28;20619;-62
2023/09/12 02:11:40;;;;;;;1.30;1.30;;;;;17.90;95739.00;;;;5054226;28;20295;-62
2023/09/12 02:14:07;;;;;;;2.07;1.97;;;;;17.80;95737.00;;;;5054492;28;20218;-63
2023/09/12 02:16:39;;;;;;;2.03;1.93;;;;;17.70;95730.00;;;;5054089;28;20216;-62
2023/09/12 02:19:07;;;;;;;0.93;0.93;;;;;17.60;95727.00;;;;5054688;28;20180;-62
2023/09/12 02:21:34;;;;;;;1.70;1.60;;;;;17.60;95733.00;;;;5054621;28;20195;-62
2023/09/12 02:24:01;;;;;;;1.80;1.70;;;;;17.60;95728.00;;;;5054111;28;20230;-62
2023/09/12 02:26:35;;;;;;;3.50;2.60;;;;;17.50;95739.00;;;;5054146;28;20195;-62
2023/09/12 02:29:07;;;;;;;3.40;2.83;;;;;17.50;95732.00;;;;5053753;28;20616;-63
2023/09/12 02:31:35;;;;;;;1.50;1.40;;;;;17.60;95735.00;;;;5054109;28;20198;-62
2023/09/12 02:34:03;;;;;;;1.57;1.50;;;;;17.60;95728.00;;;;5053379;28;20220;-61
2023/09/12 02:36:31;;;;;;;1.70;1.60;;;;;17.60;95737.00;;;;5054194;28;20211;-63
2023/09/12 02:39:03;;;;;;;2.10;2.00;;;;;17.60;95727.00;;;;5053946;28;20208;-62
2023/09/12 02:41:31;;;;;;;1.97;1.77;;;;;17.70;95722.00;;;;5054290;28;20188;-63
2023/09/12 02:44:03;;;;;;;1.67;1.57;;;;;17.80;95715.00;;;;5053631;28;20270;-63
2023/09/12 02:46:35;;;;;;;1.40;1.30;;;;;17.70;95711.00;;;;5054731;28;20678;-63
2023/09/12 02:49:02;;;;;;;2.07;1.97;;;;;17.60;95718.00;;;;5054716;28;20180;-63
2023/09/12 02:51:30;;;;;;;1.90;1.80;;;;;17.50;95716.00;;;;5054055;28;20594;-63
2023/09/12 02:53:58;;;;;;;1.70;1.60;;;;;17.60;95715.00;;;;5054144;28;20286;-63
2023/09/12 02:56:25;;;;;;;1.37;1.37;;;;;17.40;95708.00;;;;5053759;28;20287;-63
2023/09/12 02:58:55;;;;;;;1.27;1.23;;;;;17.40;95718.00;;;;5053898;28;20207;-63
2023/09/12 03:01:25;;;;;;;2.40;1.87;;;;;17.40;95727.00;;;;5054314;28;20211;-63
2023/09/12 03:03:54;;;;;;;1.40;1.30;;;;;17.40;95723.00;;;;5054461;28;20280;-63
2023/09/12 03:06:25;;;;;;;1.30;1.27;;;;;17.40;95719.00;;;;5054119;28;20191;-63
2023/09/12 03:08:52;;;;;;;2.37;2.23;;;;;17.30;95716.00;;;;5054867;28;20195;-63
2023/09/12 03:11:21;;;;;;;2.30;2.17;;;;;17.30;95711.00;;;;5054265;28;20223;-63
2023/09/12 03:13:48;;;;;;;2.30;2.07;;;;;17.20;95720.00;;;;5053906;28;20212;-63
2023/09/12 03:16:16;;;;;;;2.83;2.43;;;;;17.10;95707.00;;;;5053799;28;20642;-63
2023/09/12 03:18:43;;;;;;;1.73;1.63;;;;;17.20;95709.00;;;;5053700;28;20199;-63
2023/09/12 03:21:12;;;;;;;0.87;0.87;;;;;17.30;95705.00;;;;5054288;28;20195;-63
2023/09/12 03:23:39;;;;;;;2.23;2.13;;;;;17.30;95714.00;;;;5053935;28;20223;-63
2023/09/12 03:26:07;;;;;;;2.00;1.90;;;;;16.90;95721.00;;;;5053857;28;20193;-70
2023/09/12 03:28:35;;;;;;;1.13;1.13;;;;;16.90;95703.00;;;;5053740;28;20556;-63
2023/09/12 03:31:07;;;;;;;2.77;2.57;;;;;17.00;95692.00;;;;5053827;28;20540;-63
2023/09/12 03:33:36;;;;;;;4.13;1.87;;;;;17.10;95704.00;;;;5054145;28;20212;-63
2023/09/12 03:36:07;;;;;;;2.27;2.17;;;;;17.20;95697.00;;;;5053582;28;20228;-62
2023/09/12 03:38:38;;;;;;;2.47;2.27;;;;;17.20;95691.00;;;;5053470;28;20542;-63
2023/09/12 03:41:05;;;;;;;1.87;1.77;;;;;17.00;95700.00;;;;5054122;28;20176;-63
2023/09/12 03:43:34;;;;;;;1.60;1.50;;;;;16.90;95690.00;;;;5053705;28;20216;-63
2023/09/12 03:46:03;;;;;;;1.50;1.40;;;;;16.90;95694.00;;;;5053706;28;20198;-63
2023/09/12 03:48:31;;;;;;;1.13;1.13;;;;;16.90;95693.00;;;;5053648;28;20188;-63
2023/09/12 03:51:04;;;;;;;1.17;1.07;;;;;16.90;95690.00;;;;5054211;28;20184;-63
2023/09/12 03:53:33;;;;;;;1.50;1.40;;;;;17.10;95688.00;;;;5053652;28;20212;-63
2023/09/12 03:56:01;;;;;;;1.63;1.53;;;;;17.10;95683.00;;;;5055312;28;20193;-63
2023/09/12 03:58:29;;;;;;;2.57;2.37;;;;;17.10;95680.00;;;;5057000;28;20283;-63
2023/09/12 04:01:05;;;;;;;2.27;2.07;;;;;17.00;95692.00;;;;5057656;28;20176;-62
2023/09/12 04:03:32;;;;;;;1.10;1.10;;;;;16.80;95688.00;;;;5057378;28;20270;-63
2023/09/12 04:06:00;;;;;;;1.30;1.30;;;;;16.90;95691.00;;;;5057129;28;20227;-62
2023/09/12 04:08:27;;;;;;;1.37;1.33;;;;;16.90;95685.00;;;;5057290;28;20196;-63
2023/09/12 04:10:55;;;;;;;1.70;1.60;;;;;16.80;95681.00;;;;5057558;28;20227;-62
2023/09/12 04:13:25;;;;;;;1.10;1.10;;;;;16.90;95682.00;;;;5057103;28;20201;-62
2023/09/12 04:15:52;;;;;;;1.40;1.37;;;;;16.90;95676.00;;;;5056991;28;20204;-62
2023/09/12 04:18:20;;;;;;;6.00;2.47;;;;;16.60;95681.00;;;;5056770;28;20230;-62
2023/09/12 04:20:47;;;;;;;1.60;1.50;;;;;16.60;95684.00;;;;5057251;28;20197;-62
2023/09/12 04:23:14;;;;;;;1.83;1.73;;;;;16.90;95686.00;;;;5057208;28;20208;-62
2023/09/12 04:25:44;;;;;;;2.20;1.80;;;;;17.00;95686.00;;;;5056906;28;20192;-62
2023/09/12 04:28:14;;;;;;;1.50;1.37;;;;;17.10;95658.00;;;;5056648;28;20188;-62
2023/09/12 04:30:42;;;;;;;2.00;1.90;;;;;17.20;95675.00;;;;5056633;28;20203;-62
2023/09/12 04:33:10;;;;;;;1.67;1.57;;;;;17.10;95676.00;;;;5056544;28;20196;-62
2023/09/12 04:35:37;;;;;;;1.20;1.20;;;;;16.90;95670.00;;;;5056667;28;20192;-62
2023/09/12 04:38:05;;;;;;;1.63;1.53;;;;;16.90;95671.00;;;;5056235;28;20212;-62
2023/09/12 04:40:32;;;;;;;1.83;1.73;;;;;17.00;95673.00;;;;5056691;28;20200;-62
2023/09/12 04:42:59;;;;;;;3.80;1.70;;;;;17.00;95674.00;;;;5056132;28;20196;-62
2023/09/12 04:45:27;;;;;;;1.33;1.33;;;;;16.70;95679.00;;;;5056235;28;20273;-62
2023/09/12 04:47:55;;;;;;;2.30;2.10;;;;;16.60;95677.00;;;;5056823;28;20199;-62
2023/09/12 04:50:24;;;;;;;2.10;1.67;;;;;16.40;95672.00;;;;5056360;28;20258;-62
2023/09/12 04:52:52;;;;;;;1.67;1.57;;;;;16.60;95668.00;;;;5056955;28;20192;-62
2023/09/12 04:55:19;;;;;;;1.90;1.73;;;;;16.60;95678.00;;;;5056149;28;20220;-62
2023/09/12 04:57:46;;;;;;;1.77;1.67;;;;;16.60;95683.00;;;;5055941;28;20569;-62
2023/09/12 05:00:15;;;;;;;1.10;1.10;;;;;16.70;95678.00;;;;5037758;28;20192;-62
2023/09/12 05:02:44;;;;;;;6.43;4.87;;;;;16.70;95675.00;;;;5055932;28;20195;-63
2023/09/12 05:05:13;;;;;;;2.77;2.57;;;;;16.80;95680.00;;;;5055952;28;20223;-62
2023/09/12 05:07:40;;;;;;;3.30;1.30;;;;;16.90;95685.00;;;;5036708;28;20189;-62
2023/09/12 05:10:08;;;;;;;2.83;2.60;;;;;16.80;95683.00;;;;5055432;28;20201;-63
2023/09/12 05:12:40;;;;;;;1.47;1.37;;;;;16.70;95678.00;;;;5055426;28;20627;-62
2023/09/12 05:15:08;;;;;;;2.00;1.83;;;;;16.70;95683.00;;;;5055102;28;20215;-63
2023/09/12 05:17:36;;;;;;;1.13;1.13;;;;;16.60;95694.00;;;;5055053;28;20219;-63
2023/09/12 05:20:04;;;;;;;1.13;1.13;;;;;16.70;95688.00;;;;5055407;28;20192;-62
2023/09/12 05:22:36;;;;;;;1.53;1.43;;;;;16.80;95692.00;;;;5055122;28;20275;-62
2023/09/12 05:25:03;;;;;;;1.77;1.67;;;;;16.90;95696.00;;;;5055380;28;20687;-62
2023/09/12 05:27:31;;;;;;;2.07;1.97;;;;;17.00;95699.00;;;;5055558;28;20277;-62
2023/09/12 05:29:58;;;;;;;1.87;1.77;;;;;16.90;95698.00;;;;5054797;28;20195;-63
2023/09/12 05:32:25;;;;;;;2.20;2.10;;;;;16.80;95692.00;;;;5055053;28;20195;-63
2023/09/12 05:34:55;;;;;;;1.30;1.30;;;;;16.90;95702.00;;;;5055129;28;20216;-62
2023/09/12 05:37:22;;;;;;;1.90;1.77;;;;;17.00;95706.00;;;;5054875;28;20569;-62
2023/09/12 05:39:51;;;;;;;3.40;2.23;;;;;16.90;95714.00;;;;5055070;28;20192;-62
2023/09/12 05:42:20;;;;;;;2.77;1.73;;;;;16.80;95714.00;;;;5055053;28;20199;-62
2023/09/12 05:44:48;;;;;;;6.50;2.50;;;;;17.00;95711.00;;;;5055057;28;20287;-62
2023/09/12 05:47:16;;;;;;;2.33;2.13;;;;;17.10;95704.00;;;;5055577;28;20279;-62
2023/09/12 05:49:43;;;;;;;5.33;1.83;;;;;17.00;95709.00;;;;5055125;28;20663;-62
2023/09/12 05:52:11;;;;;;;2.07;1.97;;;;;17.00;95721.00;;;;5055066;28;20203;-63
2023/09/12 05:54:38;;;;;;;2.00;1.83;;;;;16.90;95721.00;;;;5054865;28;20257;-63
2023/09/12 05:57:07;;;;;;;4.30;1.87;;;;;17.10;95711.00;;;;5054400;28;20216;-62
2023/09/12 05:59:36;;;;;;;2.33;2.23;;;;;17.00;95729.00;;;;5054835;28;20203;-64
2023/09/12 06:02:09;;;;;;;1.30;1.30;;;;;16.90;95722.00;;;;5054865;28;20196;-65
2023/09/12 06:04:39;;;;;;;3.33;2.00;;;;;16.80;95733.00;;;;5054827;28;20212;-66
2023/09/12 06:07:07;;;;;;;6.27;2.93;;;;;16.90;95732.00;;;;5054606;28;20200;-66
2023/09/12 06:09:34;;;;;;;1.87;1.77;;;;;16.90;95729.00;;;;5054956;28;20195;-66
2023/09/12 06:12:02;;;;;;;6.40;1.40;;;;;17.10;95731.00;;;;5055479;28;20697;-64
2023/09/12 06:14:31;;;;;;;1.50;1.40;;;;;17.20;95723.00;;;;5054358;28;20211;-62
2023/09/12 06:17:00;;;;;;;1.30;1.30;;;;;17.30;95732.00;;;;5054116;28;20216;-62
2023/09/12 06:19:28;;;;;;;1.30;1.30;;;;;17.40;95730.00;;;;5054481;28;20620;-63
2023/09/12 06:21:56;;;;;;;6.57;2.00;;;;;17.60;95729.00;;;;5054836;28;20188;-63
2023/09/12 06:24:23;;;;;;;2.00;1.80;;;;;17.70;95732.00;;;;5054890;28;20215;-63
2023/09/12 06:26:51;;;;;;;1.60;1.50;;;;;17.70;95731.00;;;;5055122;28;20276;-63
2023/09/12 06:29:21;;;;;;;1.80;1.70;;;;;17.60;95731.00;;;;5054898;28;20187;-62
2023/09/12 06:31:50;;;;;;;10.33;2.33;;;;;17.70;95729.00;;;;5054666;28;20188;-63
2023/09/12 06:34:17;;;;;;;17.03;3.07;;;;;17.70;95732.00;;;;5054969;28;20222;-63
2023/09/12 06:36:45;;;;;;;1.87;1.77;;;;;17.70;95727.00;;;;5054547;28;20663;-63
2023/09/12 06:39:12;;;;;;;1.50;1.43;;;;;17.80;95726.00;;;;5054960;28;20224;-63
2023/09/12 06:41:48;;;;;;;1.97;1.87;;;;;17.90;95722.00;;;;5055309;28;20199;-63
2023/09/12 06:44:15;;;;;;;1.20;1.20;;;;;18.00;95723.00;;;;5054747;28;20222;-63
2023/09/12 06:46:42;;;;;;;2.57;2.17;;;;;18.30;95728.00;;;;5054750;28;20270;-63
2023/09/12 06:49:11;;;;;;;2.30;2.20;;;;;18.40;95726.00;;;;5054429;28;20553;-63
2023/09/12 06:51:39;;;;;;;0.93;0.93;;;;;18.50;95728.00;;;;5054702;28;20200;-63
2023/09/12 06:54:09;;;;;;;1.63;1.53;;;;;18.60;95733.00;;;;5054358;28;20222;-63
2023/09/12 06:56:41;;;;;;;9.37;2.43;;;;;18.60;95731.00;;;;5054908;28;20176;-63
2023/09/12 06:59:09;;;;;;;2.03;1.90;;;;;18.80;95737.00;;;;5054561;28;20224;-63
2023/09/12 07:01:36;;;;;;;2.80;2.60;;;;;18.90;95739.00;;;;5054642;28;20192;-63
2023/09/12 07:04:04;;;;;;;1.73;1.63;;;;;18.90;95739.00;;;;5054481;28;20219;-63
2023/09/12 07:06:33;;;;;;;1.07;1.07;;;;;19.00;95742.00;;;;5054813;28;20192;-63
2023/09/12 07:09:01;;;;;;;2.73;1.73;;;;;19.00;95740.00;;;;5054721;28;20672;-63
2023/09/12 07:11:28;;;;;;;2.20;2.00;;;;;19.00;95745.00;;;;5054181;28;20196;-63
2023/09/12 07:13:55;;;;;;;2.27;2.07;;;;;19.00;95743.00;;;;5054968;28;20216;-63
2023/09/12 07:16:23;;;;;;;2.87;2.17;;;;;18.70;95741.00;;;;5054760;28;20199;-63
2023/09/12 07:18:50;;;;;;;2.60;2.40;;;;;18.70;95740.00;;;;5054537;28;20218;-63
2023/09/12 07:21:18;;;;;;;2.47;1.97;;;;;18.60;95740.00;;;;5054456;28;20250;-63
2023/09/12 07:23:50;;;;;;;2.57;2.00;;;;;18.60;95742.00;;;;5054069;28;20227;-62
2023/09/12 07:26:20;;;;;;;2.03;1.83;;;;;18.60;95742.00;;;;5053879;28;20710;-63
2023/09/12 07:28:47;;;;;;;3.23;2.33;;;;;18.80;95743.00;;;;5054614;28;20200;-62
2023/09/12 07:31:15;;;;;;;1.53;1.43;;;;;18.90;95747.00;;;;5055998;28;20203;-62
2023/09/12 07:33:42;;;;;;;2.13;1.57;;;;;19.20;95737.00;;;;5039780;28;20219;-62
2023/09/12 07:36:09;;;;;;;1.20;1.20;;;;;19.40;95741.00;;;;5057759;28;20283;-63
2023/09/12 07:38:38;;;;;;;2.20;2.03;;;;;19.50;95750.00;;;;5057395;28;20216;-63
2023/09/12 07:41:06;;;;;;;1.50;1.40;;;;;19.50;95750.00;;;;5057739;28;20202;-63
2023/09/12 07:43:34;;;;;;;1.50;1.47;;;;;19.60;95750.00;;;;5057765;28;20216;-63
2023/09/12 07:46:01;;;;;;;1.97;1.87;;;;;19.70;95741.00;;;;5057799;28;20192;-63
2023/09/12 07:48:32;;;;;;;1.80;1.70;;;;;19.90;95734.00;;;;5057544;28;20261;-63
2023/09/12 07:51:02;;;;;;;2.83;2.63;;;;;20.10;95739.00;;;;5057024;28;20180;-63
2023/09/12 07:53:29;;;;;;;1.90;1.80;;;;;20.20;95747.00;;;;5057629;28;20212;-63
2023/09/12 07:56:00;;;;;;;2.63;2.43;;;;;20.30;95743.00;;;;5057169;28;20188;-63
2023/09/12 07:58:29;;;;;;;1.50;1.43;;;;;20.40;95743.00;;;;5056696;28;20690;-63
2023/09/12 08:00:57;;;;;;;2.10;2.00;;;;;20.60;95742.00;;;;5056494;28;20188;-63
2023/09/12 08:03:27;;;;;;;2.47;2.27;;;;;20.80;95742.00;;;;5056551;28;20610;-63
2023/09/12 08:05:58;;;;;;;2.10;1.97;;;;;21.10;95737.00;;;;5056391;28;20192;-63
2023/09/12 08:08:26;;;;;;;1.52;1.45;;;;;21.10;95745.00;;;;5056320;28;20656;-63
2023/09/12 08:10:53;;;;;;;1.90;1.70;;;;;21.10;95755.00;;;;5056276;28;20271;-62
2023/09/12 08:13:25;;;;;;;4.47;2.05;;;;;21.40;95751.00;;;;5056415;28;20279;-63
2023/09/12 08:15:54;;;;;;;1.75;1.65;;;;;21.60;95743.00;;;;5056696;28;20191;-63
2023/09/12 08:18:21;;;;;;;1.13;1.13;;;;;21.80;95749.00;;;;5057110;28;20238;-63
2023/09/12 08:20:49;;;;;;;0.80;0.80;;;;;21.90;95745.00;;;;5057037;28;20192;-63
2023/09/12 08:23:16;;;;;;;2.08;1.98;;;;;22.20;95740.00;;;;5057843;28;20203;-63
2023/09/12 08:25:43;;;;;;;1.63;1.52;;;;;22.40;95745.00;;;;5057169;28;20196;-63
2023/09/12 08:28:12;;;;;;;1.98;1.77;;;;;22.50;95739.00;;;;5057987;28;20192;-63
2023/09/12 08:30:40;;;;;;;2.53;2.33;;;;;22.80;95743.00;;;;5057124;28;20274;-63
2023/09/12 08:33:10;;;;;;;1.52;1.45;;;;;22.90;95744.00;;;;5057205;28;20195;-63
2023/09/12 08:35:40;;;;;;;2.35;2.15;;;;;23.20;95747.00;;;;5056871;28;20191;-63
2023/09/12 08:38:08;;;;;;;2.13;2.03;;;;;23.40;95757.00;;;;5056421;28;20227;-63
2023/09/12 08:40:36;;;;;;;1.85;1.75;;;;;23.40;95757.00;;;;5056300;28;20275;-63
2023/09/12 08:43:04;;;;;;;2.42;2.22;;;;;23.40;95760.00;;;;5054885;28;20200;-62
2023/09/12 08:45:31;;;;;;;1.90;1.80;;;;;23.70;95757.00;;;;5056302;28;20559;-62
2023/09/12 08:48:02;;;;;;;3.05;1.98;;;;;24.00;95751.00;;;;5055845;28;20188;-63
2023/09/12 08:50:33;;;;;;;6.63;2.15;;;;;24.20;95751.00;;;;5056361;28;20192;-63
2023/09/12 08:53:00;;;;;;;1.65;1.55;;;;;24.40;95747.00;;;;5055644;28;20195;-63
2023/09/12 08:55:29;;;;;;;1.98;1.88;;;;;24.60;95746.00;;;;5055544;28;20238;-62
2023/09/12 08:57:58;;;;;;;2.38;2.17;;;;;24.80;95716.00;;;;5055879;28;20223;-63
2023/09/12 09:00:27;;;;;;;6.93;2.22;;;;;25.00;95744.00;;;;5038188;28;20511;-63
2023/09/12 09:02:55;;;;;;;1.88;1.77;;;;;25.30;95743.00;;;;5055627;28;20212;-62
2023/09/12 09:05:23;;;;;;;1.20;1.15;;;;;25.10;95737.00;;;;5055737;28;20218;-62
2023/09/12 09:07:53;;;;;;;1.23;1.23;;;;;25.40;95749.00;;;;5055878;28;20184;-63
2023/09/12 09:10:23;;;;;;;2.20;1.98;;;;;25.30;95742.00;;;;5055703;28;20200;-62
2023/09/12 09:12:51;;;;;;;1.48;1.38;;;;;25.50;95730.00;;;;5055994;28;20187;-62
2023/09/12 09:15:26;;;;;;;1.88;1.77;;;;;25.70;95735.00;;;;5055772;28;20554;-62
2023/09/12 09:17:55;;;;;;;1.48;1.38;;;;;25.80;95727.00;;;;5055551;28;20215;-62
2023/09/12 09:20:30;;;;;;;2.08;1.90;;;;;26.00;95725.00;;;;5056262;28;20223;-62
2023/09/12 09:23:00;;;;;;;2.92;1.63;;;;;26.00;95737.00;;;;5055314;28;20184;-62
2023/09/12 09:25:32;;;;;;;1.85;1.75;;;;;26.20;95731.00;;;;5055295;28;20262;-62
2023/09/12 09:28:01;;;;;;;2.45;2.20;;;;;26.30;95726.00;;;;5037507;28;20195;-62
2023/09/12 09:30:42;;;;;;;3.05;1.58;;;;;26.50;95729.00;;;;5055610;28;20581;-62
2023/09/12 09:33:12;;;;;;;1.50;1.40;;;;;26.60;95722.00;;;;5055132;28;20188;-62
2023/09/12 09:35:42;;;;;;;1.83;1.73;;;;;26.80;95725.00;;;;5055917;28;20635;-62
2023/09/12 09:38:16;;;;;;;1.92;1.83;;;;;26.80;95722.00;;;;5055369;28;20216;-62
2023/09/12 09:40:44;;;;;;;2.47;1.73;;;;;26.80;95723.00;;;;5055405;28;20191;-62
2023/09/12 09:43:13;;;;;;;1.85;1.75;;;;;26.90;95716.00;;;;5037345;28;20196;-62
2023/09/12 09:45:47;;;;;;;2.08;1.95;;;;;27.00;95718.00;;;;5054860;28;20208;-63
2023/09/12 09:48:20;;;;;;;1.30;1.30;;;;;27.10;95716.00;;;;5055472;28;20187;-62
2023/09/12 09:50:48;;;;;;;5.40;2.40;;;;;27.20;95722.00;;;;5055001;28;20191;-62
2023/09/12 09:53:20;;;;;;;8.75;2.42;;;;;27.50;95708.00;;;;5054027;28;20204;-63
2023/09/12 09:55:48;;;;;;;8.20;1.95;;;;;27.60;95709.00;;;;5037558;28;20213;-63
2023/09/12 09:58:17;;;;;;;1.95;1.83;;;;;27.60;95716.00;;;;5054503;28;20216;-63
2023/09/12 10:00:48;;;;;;;1.77;1.67;;;;;27.70;95717.00;;;;5055304;28;20608;-63
2023/09/12 10:03:18;;;;;;;2.00;1.85;;;;;27.80;95708.00;;;;5054574;28;20180;-63
2023/09/12 10:05:47;;;;;;;1.20;1.20;;;;;28.00;95711.00;;;;5036457;28;20190;-63
2023/09/12 10:08:17;;;;;;;0.98;0.98;;;;;28.00;95716.00;;;;5054291;28;20193;-63
2023/09/12 10:10:44;;;;;;;1.83;1.58;;;;;28.30;95717.00;;;;5054499;28;20188;-63
2023/09/12 10:13:13;;;;;;;4.75;1.95;;;;;28.40;95717.00;;;;5055135;28;20200;-62
2023/09/12 10:15:45;;;;;;;2.92;2.13;;;;;28.30;95705.00;;;;5053932;28;20196;-63
2023/09/12 10:18:24;;;;;;;2.42;2.22;;;;;28.40;95715.00;;;;5054467;28;20204;-63
2023/09/12 10:20:56;;;;;;;1.40;1.40;;;;;28.70;95704.00;;;;5054222;28;20184;-62
2023/09/12 10:23:33;;;;;;;1.88;1.75;;;;;28.90;95702.00;;;;5054161;28;20294;-62
2023/09/12 10:26:02;;;;;;;1.52;1.42;;;;;29.00;95706.00;;;;5054226;28;20189;-66
2023/09/12 10:28:30;;;;;;;2.22;2.13;;;;;29.20;95708.00;;;;5053493;28;20550;-65
2023/09/12 10:31:09;;;;;;;1.45;1.35;;;;;29.20;95698.00;;;;5053985;28;20606;-64
2023/09/12 10:33:36;;;;;;;2.10;2.00;;;;;29.10;95698.00;;;;5053805;28;20220;-63
2023/09/12 10:36:06;;;;;;;1.35;1.27;;;;;29.50;95694.00;;;;5053903;28;20274;-63
2023/09/12 10:38:41;;;;;;;1.48;1.38;;;;;29.70;95691.00;;;;5053397;28;20220;-64
2023/09/12 10:41:11;;;;;;;1.60;1.50;;;;;29.70;95684.00;;;;5053813;28;20186;-64
2023/09/12 10:43:40;;;;;;;2.78;1.95;;;;;29.90;95686.00;;;;5053897;28;20302;-63
2023/09/12 10:46:08;;;;;;;1.73;1.63;;;;;30.00;95682.00;;;;5053712;28;20270;-63
2023/09/12 10:48:37;;;;;;;1.40;1.35;;;;;30.30;95677.00;;;;5053469;28;20188;-64
2023/09/12 10:51:05;;;;;;;11.38;1.60;;;;;30.70;95690.00;;;;5053425;28;20238;-64
2023/09/12 10:53:34;;;;;;;1.10;1.10;;;;;31.00;95685.00;;;;5053521;28;20219;-63
2023/09/12 10:56:15;;;;;;;1.35;1.25;;;;;31.10;95682.00;;;;5035215;28;20199;-63
2023/09/12 10:59:15;;;;;;;1.20;1.20;;;;;31.20;95681.00;;;;5053282;28;20219;-63
2023/09/12 11:01:45;;;;;;;1.30;1.30;;;;;31.30;95677.00;;;;5053483;28;20184;-64
2023/09/12 11:04:34;;;;;;;1.17;1.10;;;;;31.30;95676.00;;;;5053075;28;20220;-63
2023/09/12 11:07:02;;;;;;;2.63;1.88;;;;;31.20;95675.00;;;;5057077;28;20180;-64
2023/09/12 11:09:30;;;;;;;2.00;1.83;;;;;31.10;95679.00;;;;5057056;28;20192;-64
2023/09/12 11:12:02;;;;;;;1.80;1.70;;;;;31.10;95670.00;;;;5057459;28;20199;-63
2023/09/12 11:14:30;;;;;;;1.70;1.55;;;;;31.30;95672.00;;;;5057484;28;20212;-64
2023/09/12 11:17:23;;;;;;;2.40;2.20;;;;;31.50;95667.00;;;;5057248;28;20200;-63
2023/09/12 11:19:53;;;;;;;2.38;2.00;;;;;31.90;95656.00;;;;5057497;28;20227;-64
2023/09/12 11:22:25;;;;;;;1.65;1.55;;;;;31.40;95653.00;;;;5057453;28;20196;-64
2023/09/12 11:24:55;;;;;;;1.40;1.30;;;;;31.70;95646.00;;;;5056980;28;20300;-63
2023/09/12 11:27:24;;;;;;;1.70;1.60;;;;;32.10;95649.00;;;;5056978;28;20173;-64
2023/09/12 11:29:51;;;;;;;1.55;1.45;;;;;32.30;95650.00;;;;5057683;28;20250;-63
2023/09/12 11:32:28;;;;;;;5.75;2.17;;;;;32.30;95653.00;;;;5057015;28;20663;-64
2023/09/12 11:34:56;;;;;;;1.65;1.55;;;;;32.00;95659.00;;;;5057087;28;20326;-64
2023/09/12 11:37:28;;;;;;;2.15;1.98;;;;;32.40;95665.00;;;;5058115;28;20538;-63
2023/09/12 11:39:58;;;;;;;1.27;1.20;;;;;32.40;95652.00;;;;5057580;28;20683;-63
2023/09/12 11:42:26;;;;;;;1.50;1.40;;;;;32.50;95657.00;;;;5057469;28;20678;-63
2023/09/12 11:44:54;;;;;;;1.90;1.80;;;;;32.50;95657.00;;;;5057125;28;20695;-63
2023/09/12 11:47:21;;;;;;;1.38;1.35;;;;;32.70;95657.00;;;;5057245;28;20196;-63
2023/09/12 11:49:50;;;;;;;2.28;1.90;;;;;32.10;95658.00;;;;5057352;28;20197;-64
2023/09/12 11:52:19;;;;;;;1.40;1.30;;;;;32.60;95668.00;;;;5057135;28;20227;-64
2023/09/12 11:54:46;;;;;;;1.50;1.40;;;;;32.60;95682.00;;;;5057271;28;20215;-64
2023/09/12 11:57:16;;;;;;;2.00;1.80;;;;;32.50;95670.00;;;;5057081;28;20202;-64
2023/09/12 11:59:46;;;;;;;2.05;1.95;;;;;32.60;95674.00;;;;5056792;28;20219;-63
2023/09/12 12:02:15;;;;;;;1.80;1.70;;;;;32.80;95675.00;;;;5056849;28;20227;-63
2023/09/12 12:04:45;;;;;;;1.70;1.60;;;;;32.70;95677.00;;;;5056770;28;20309;-63
2023/09/12 12:07:13;;;;;;;1.83;1.73;;;;;33.10;95672.00;;;;5056663;28;20192;-63
2023/09/12 12:09:41;;;;;;;2.30;1.98;;;;;33.20;95662.00;;;;5056864;28;20219;-63
2023/09/12 12:12:15;;;;;;;2.13;2.03;;;;;33.10;95682.00;;;;5056707;28;20207;-63
2023/09/12 12:14:44;;;;;;;3.30;2.78;;;;;32.50;95677.00;;;;5038660;28;20281;-63
2023/09/12 12:17:13;;;;;;;1.50;1.40;;;;;32.50;95678.00;;;;5056075;28;20188;-64
2023/09/12 12:19:45;;;;;;;2.50;2.00;;;;;32.50;95690.00;;;;5056419;28;20297;-63
2023/09/12 12:22:13;;;;;;;1.92;1.83;;;;;32.20;95693.00;;;;5055985;28;20180;-63
2023/09/12 12:24:42;;;;;;;2.28;1.85;;;;;32.10;95693.00;;;;5056294;28;20220;-64
2023/09/12 12:27:11;;;;;;;1.70;1.60;;;;;31.60;95691.00;;;;5056515;28;20184;-63
2023/09/12 12:29:40;;;;;;;2.30;2.10;;;;;31.30;95696.00;;;;5056271;28;20558;-62